Time,TemperatureF,DewpointF,PressureIn,WindDirection,WindDirectionDegrees,WindSpeedMPH,WindSpeedGustMPH,Humidity,HourlyPrecipIn,Conditions,Clouds,dailyrainin,SoftwareType,DateUTC
2013-04-13 00:00:00,77.0,69.7,29.88,North,0,0.0,0.0,78,0.00,,,0.00,WUHU216HW,2013-04-13 04:00:00,
2013-04-13 00:05:00,77.0,69.7,29.88,North,0,0.0,0.0,78,0.00,,,0.00,WUHU216HW,2013-04-13 04:05:00,
2013-04-13 00:10:00,77.0,69.7,29.88,North,0,0.0,0.0,78,0.00,,,0.00,WUHU216HW,2013-04-13 04:10:00,
2013-04-13 00:15:00,76.7,69.3,29.87,North,0,0.0,0.0,78,0.00,,,0.00,WUHU216HW,2013-04-13 04:15:00,
2013-04-13 00:20:00,76.7,69.3,29.88,North,0,0.0,0.0,78,0.00,,,0.00,WUHU216HW,2013-04-13 04:20:00,
2013-04-13 00:25:00,76.7,69.3,29.87,North,0,0.0,0.0,78,0.00,,,0.00,WUHU216HW,2013-04-13 04:25:00,
2013-04-13 00:30:00,76.5,69.1,29.87,North,0,0.0,0.0,78,0.00,,,0.00,WUHU216HW,2013-04-13 04:30:00,
2013-04-13 00:35:00,76.3,69.4,29.87,North,0,0.0,0.0,79,0.00,,,0.00,WUHU216HW,2013-04-13 04:35:00,
2013-04-13 00:40:00,76.3,69.4,29.87,North,0,0.0,0.0,79,0.00,,,0.00,WUHU216HW,2013-04-13 04:40:00,
2013-04-13 00:45:00,76.1,69.2,29.87,North,0,0.0,0.0,79,0.00,,,0.00,WUHU216HW,2013-04-13 04:45:00,
2013-04-13 00:50:00,76.1,69.2,29.87,North,0,0.0,0.0,79,0.00,,,0.00,WUHU216HW,2013-04-13 04:50:00,
2013-04-13 00:55:00,76.1,69.2,29.87,North,0,0.0,0.0,79,0.00,,,0.00,WUHU216HW,2013-04-13 04:55:00,
2013-04-13 01:00:00,76.0,69.4,29.87,North,0,0.0,0.0,80,0.00,,,0.00,WUHU216HW,2013-04-13 05:00:00,
2013-04-13 01:05:00,76.0,69.4,29.88,North,0,0.0,0.0,80,0.00,,,0.00,WUHU216HW,2013-04-13 05:05:00,
2013-04-13 01:10:00,76.0,69.4,29.88,North,0,0.0,0.0,80,0.00,,,0.00,WUHU216HW,2013-04-13 05:10:00,
2013-04-13 01:15:00,76.0,69.4,29.88,North,0,0.0,0.0,80,0.00,,,0.00,WUHU216HW,2013-04-13 05:15:00,
2013-04-13 01:20:00,76.0,69.4,29.88,North,0,0.0,0.0,80,0.00,,,0.00,WUHU216HW,2013-04-13 05:20:00,
2013-04-13 01:25:00,76.0,69.4,29.88,North,0,0.0,0.0,80,0.00,,,0.00,WUHU216HW,2013-04-13 05:25:00,
2013-04-13 01:30:00,76.1,69.6,29.88,North,0,0.0,0.0,80,0.00,,,0.00,WUHU216HW,2013-04-13 05:30:00,
2013-04-13 01:35:00,76.0,69.4,29.88,North,0,0.0,0.0,80,0.00,,,0.00,WUHU216HW,2013-04-13 05:35:00,
2013-04-13 01:40:00,76.0,69.0,29.88,North,0,0.0,0.0,79,0.00,,,0.00,WUHU216HW,2013-04-13 05:40:00,
2013-04-13 01:45:00,76.0,69.0,29.88,North,0,0.0,0.0,79,0.00,,,0.00,WUHU216HW,2013-04-13 05:45:00,
2013-04-13 01:50:00,76.0,69.0,29.87,North,0,0.0,0.0,79,0.00,,,0.00,WUHU216HW,2013-04-13 05:50:00,
2013-04-13 01:55:00,76.0,69.0,29.87,North,0,0.0,0.0,79,0.00,,,0.00,WUHU216HW,2013-04-13 05:55:00,
2013-04-13 02:00:00,75.8,68.9,29.87,North,0,0.0,0.0,79,0.00,,,0.00,WUHU216HW,2013-04-13 06:00:00,
2013-04-13 02:05:00,75.8,68.9,29.87,North,0,0.0,0.0,79,0.00,,,0.00,WUHU216HW,2013-04-13 06:05:00,
2013-04-13 02:10:00,75.6,68.7,29.86,North,0,0.0,0.0,79,0.00,,,0.00,WUHU216HW,2013-04-13 06:10:00,
2013-04-13 02:15:00,75.6,68.7,29.87,North,0,0.0,0.0,79,0.00,,,0.00,WUHU216HW,2013-04-13 06:15:00,
2013-04-13 02:20:00,75.4,68.5,29.87,North,0,0.0,0.0,79,0.00,,,0.00,WUHU216HW,2013-04-13 06:20:00,
2013-04-13 02:25:00,75.4,68.5,29.87,North,0,0.0,0.0,79,0.00,,,0.00,WUHU216HW,2013-04-13 06:25:00,
2013-04-13 02:30:00,75.4,68.5,29.87,North,0,0.0,0.0,79,0.00,,,0.00,WUHU216HW,2013-04-13 06:30:00,
2013-04-13 02:35:00,75.4,69.0,29.87,North,0,0.0,0.0,80,0.00,,,0.00,WUHU216HW,2013-04-13 06:35:00,
2013-04-13 02:40:00,75.2,68.8,29.87,North,0,0.0,0.0,80,0.00,,,0.00,WUHU216HW,2013-04-13 06:40:00,
2013-04-13 02:45:00,75.2,68.8,29.87,North,0,0.0,0.0,80,0.00,,,0.00,WUHU216HW,2013-04-13 06:45:00,
2013-04-13 02:50:00,75.1,68.6,29.86,North,0,0.0,0.0,80,0.00,,,0.00,WUHU216HW,2013-04-13 06:50:00,
2013-04-13 02:56:00,74.9,68.4,29.86,North,0,0.0,0.0,80,0.00,,,0.00,WUHU216HW,2013-04-13 06:56:00,
2013-04-13 03:01:00,74.5,68.0,29.86,North,0,0.0,0.0,80,0.00,,,0.00,WUHU216HW,2013-04-13 07:01:00,
2013-04-13 03:06:00,74.5,68.4,29.86,North,0,0.0,0.0,81,0.00,,,0.00,WUHU216HW,2013-04-13 07:06:00,
2013-04-13 03:11:00,74.5,68.4,29.87,North,0,0.0,0.0,81,0.00,,,0.00,WUHU216HW,2013-04-13 07:11:00,
2013-04-13 03:16:00,74.5,68.4,29.86,North,0,0.0,0.0,81,0.00,,,0.00,WUHU216HW,2013-04-13 07:16:00,
2013-04-13 03:21:00,74.3,68.2,29.86,North,0,0.0,0.0,81,0.00,,,0.00,WUHU216HW,2013-04-13 07:21:00,
2013-04-13 03:27:00,74.2,68.1,29.87,North,0,0.0,0.0,81,0.00,,,0.00,WUHU216HW,2013-04-13 07:27:00,
2013-04-13 03:32:00,74.0,67.9,29.86,North,0,0.0,0.0,81,0.00,,,0.00,WUHU216HW,2013-04-13 07:32:00,
2013-04-13 03:37:00,73.8,67.7,29.86,North,0,0.0,0.0,81,0.00,,,0.00,WUHU216HW,2013-04-13 07:37:00,
2013-04-13 03:42:00,73.6,67.9,29.86,North,0,0.0,0.0,82,0.00,,,0.00,WUHU216HW,2013-04-13 07:42:00,
2013-04-13 03:47:00,73.6,67.9,29.85,North,0,0.0,0.0,82,0.00,,,0.00,WUHU216HW,2013-04-13 07:47:00,
2013-04-13 03:52:00,73.6,67.9,29.86,North,0,0.0,0.0,82,0.00,,,0.00,WUHU216HW,2013-04-13 07:52:00,
2013-04-13 03:57:00,73.6,67.9,29.86,North,0,0.0,0.0,82,0.00,,,0.00,WUHU216HW,2013-04-13 07:57:00,
2013-04-13 04:02:00,73.6,67.9,29.86,North,0,0.0,0.0,82,0.00,,,0.00,WUHU216HW,2013-04-13 08:02:00,
2013-04-13 04:07:00,73.4,67.7,29.86,North,0,0.0,0.0,82,0.00,,,0.00,WUHU216HW,2013-04-13 08:07:00,
2013-04-13 04:12:00,73.4,67.7,29.87,North,0,0.0,0.0,82,0.00,,,0.00,WUHU216HW,2013-04-13 08:12:00,
2013-04-13 04:17:00,73.4,68.0,29.87,North,0,0.0,0.0,83,0.00,,,0.00,WUHU216HW,2013-04-13 08:17:00,
2013-04-13 04:22:00,73.4,68.0,29.87,North,0,0.0,0.0,83,0.00,,,0.00,WUHU216HW,2013-04-13 08:22:00,
2013-04-13 04:27:00,73.4,68.0,29.87,North,0,0.0,0.0,83,0.00,,,0.00,WUHU216HW,2013-04-13 08:27:00,
2013-04-13 04:32:00,73.4,68.0,29.88,North,0,0.0,0.0,83,0.00,,,0.00,WUHU216HW,2013-04-13 08:32:00,
2013-04-13 04:38:00,73.3,67.8,29.87,North,0,0.0,0.0,83,0.00,,,0.00,WUHU216HW,2013-04-13 08:38:00,
2013-04-13 04:43:00,73.1,67.6,29.87,North,0,0.0,0.0,83,0.00,,,0.00,WUHU216HW,2013-04-13 08:43:00,
2013-04-13 04:48:00,73.1,67.6,29.87,North,0,0.0,0.0,83,0.00,,,0.00,WUHU216HW,2013-04-13 08:48:00,
2013-04-13 04:53:00,73.1,67.6,29.87,North,0,0.0,0.0,83,0.00,,,0.00,WUHU216HW,2013-04-13 08:53:00,
2013-04-13 04:58:00,72.9,67.4,29.87,North,0,0.0,0.0,83,0.00,,,0.00,WUHU216HW,2013-04-13 08:58:00,
2013-04-13 05:03:00,72.9,67.4,29.87,North,0,0.0,0.0,83,0.00,,,0.00,WUHU216HW,2013-04-13 09:03:00,
2013-04-13 05:08:00,72.9,67.4,29.86,North,0,0.0,0.0,83,0.00,,,0.00,WUHU216HW,2013-04-13 09:08:00,
2013-04-13 05:13:00,72.9,67.4,29.86,North,0,0.0,0.0,83,0.00,,,0.00,WUHU216HW,2013-04-13 09:13:00,
2013-04-13 05:18:00,72.9,67.4,29.87,North,0,0.0,0.0,83,0.00,,,0.00,WUHU216HW,2013-04-13 09:18:00,
2013-04-13 05:24:00,72.9,67.4,29.87,North,0,0.0,0.0,83,0.00,,,0.00,WUHU216HW,2013-04-13 09:24:00,
2013-04-13 05:29:00,72.9,67.8,29.87,North,0,0.0,0.0,84,0.00,,,0.00,WUHU216HW,2013-04-13 09:29:00,
2013-04-13 05:34:00,72.9,67.8,29.87,North,0,0.0,0.0,84,0.00,,,0.00,WUHU216HW,2013-04-13 09:34:00,
2013-04-13 05:39:00,72.9,67.8,29.87,North,0,0.0,0.0,84,0.00,,,0.00,WUHU216HW,2013-04-13 09:39:00,
2013-04-13 05:44:00,72.7,67.2,29.87,North,0,0.0,0.0,83,0.00,,,0.00,WUHU216HW,2013-04-13 09:44:00,
2013-04-13 05:49:00,72.2,67.1,29.86,North,0,0.0,0.0,84,0.00,,,0.00,WUHU216HW,2013-04-13 09:49:00,
2013-04-13 05:54:00,72.2,67.1,29.86,North,0,0.0,0.0,84,0.00,,,0.00,WUHU216HW,2013-04-13 09:54:00,
2013-04-13 05:59:00,72.4,67.2,29.86,North,0,0.0,0.0,84,0.00,,,0.00,WUHU216HW,2013-04-13 09:59:00,
2013-04-13 06:05:00,72.2,67.1,29.86,North,0,0.0,0.0,84,0.00,,,0.00,WUHU216HW,2013-04-13 10:05:00,
2013-04-13 06:10:00,72.2,67.1,29.86,North,0,0.0,0.0,84,0.00,,,0.00,WUHU216HW,2013-04-13 10:10:00,
2013-04-13 06:15:00,72.0,66.9,29.86,North,0,0.0,0.0,84,0.00,,,0.00,WUHU216HW,2013-04-13 10:15:00,
2013-04-13 06:20:00,72.0,66.9,29.87,North,0,0.0,0.0,84,0.00,,,0.00,WUHU216HW,2013-04-13 10:20:00,
2013-04-13 06:25:00,72.2,67.1,29.86,North,0,0.0,0.0,84,0.00,,,0.00,WUHU216HW,2013-04-13 10:25:00,
2013-04-13 06:30:00,72.2,67.1,29.87,North,0,0.0,0.0,84,0.00,,,0.00,WUHU216HW,2013-04-13 10:30:00,
2013-04-13 06:35:00,72.2,67.1,29.87,North,0,0.0,0.0,84,0.00,,,0.00,WUHU216HW,2013-04-13 10:35:00,
2013-04-13 06:41:00,72.4,67.2,29.87,North,0,0.0,0.0,84,0.00,,,0.00,WUHU216HW,2013-04-13 10:41:00,
2013-04-13 06:46:00,72.4,67.2,29.87,North,0,0.0,0.0,84,0.00,,,0.00,WUHU216HW,2013-04-13 10:46:00,
2013-04-13 06:51:00,72.2,67.1,29.87,North,0,0.0,0.0,84,0.00,,,0.00,WUHU216HW,2013-04-13 10:51:00,
2013-04-13 06:56:00,72.2,67.1,29.87,North,0,0.0,0.0,84,0.00,,,0.00,WUHU216HW,2013-04-13 10:56:00,
2013-04-13 07:01:00,72.2,67.1,29.88,North,0,0.0,0.0,84,0.00,,,0.00,WUHU216HW,2013-04-13 11:01:00,
2013-04-13 07:06:00,72.0,66.9,29.88,North,0,0.0,0.0,84,0.00,,,0.00,WUHU216HW,2013-04-13 11:06:00,
2013-04-13 07:11:00,72.0,66.9,29.88,North,0,0.0,0.0,84,0.00,,,0.00,WUHU216HW,2013-04-13 11:11:00,
2013-04-13 07:16:00,72.0,66.9,29.88,North,0,0.0,0.0,84,0.00,,,0.00,WUHU216HW,2013-04-13 11:16:00,
2013-04-13 07:21:00,72.0,66.9,29.88,North,0,0.0,0.0,84,0.00,,,0.00,WUHU216HW,2013-04-13 11:21:00,
2013-04-13 07:26:00,72.0,66.9,29.88,North,0,0.0,0.0,84,0.00,,,0.00,WUHU216HW,2013-04-13 11:26:00,
2013-04-13 07:32:00,72.0,66.9,29.89,North,0,0.0,0.0,84,0.00,,,0.00,WUHU216HW,2013-04-13 11:32:00,
2013-04-13 07:37:00,72.0,66.9,29.89,North,0,0.0,0.0,84,0.00,,,0.00,WUHU216HW,2013-04-13 11:37:00,
2013-04-13 07:42:00,72.2,67.1,29.89,North,0,0.0,0.0,84,0.00,,,0.00,WUHU216HW,2013-04-13 11:42:00,
2013-04-13 07:47:00,72.2,67.4,29.90,North,0,0.0,0.0,85,0.00,,,0.00,WUHU216HW,2013-04-13 11:47:00,
2013-04-13 07:52:00,72.2,67.1,29.90,North,0,0.0,0.0,84,0.00,,,0.00,WUHU216HW,2013-04-13 11:52:00,
2013-04-13 07:57:00,72.2,67.4,29.90,North,0,0.0,0.0,85,0.00,,,0.00,WUHU216HW,2013-04-13 11:57:00,
2013-04-13 08:02:00,72.4,67.6,29.91,North,0,0.0,0.0,85,0.00,,,0.00,WUHU216HW,2013-04-13 12:02:00,
2013-04-13 08:07:00,72.4,67.6,29.92,North,0,0.0,0.0,85,0.00,,,0.00,WUHU216HW,2013-04-13 12:07:00,
2013-04-13 08:12:00,72.4,67.6,29.92,North,0,0.0,0.0,85,0.00,,,0.00,WUHU216HW,2013-04-13 12:12:00,
2013-04-13 08:17:00,72.5,67.8,29.92,North,0,0.0,0.0,85,0.00,,,0.00,WUHU216HW,2013-04-13 12:17:00,
2013-04-13 08:22:00,72.5,67.8,29.92,North,0,0.0,0.0,85,0.00,,,0.00,WUHU216HW,2013-04-13 12:22:00,
2013-04-13 08:27:00,72.7,68.0,29.92,North,0,0.0,0.0,85,0.00,,,0.00,WUHU216HW,2013-04-13 12:27:00,
2013-04-13 08:32:00,72.7,67.6,29.92,North,0,0.0,0.0,84,0.00,,,0.00,WUHU216HW,2013-04-13 12:32:00,
2013-04-13 08:37:00,72.9,67.8,29.93,North,0,0.0,0.0,84,0.00,,,0.00,WUHU216HW,2013-04-13 12:37:00,
2013-04-13 08:42:00,73.1,68.3,29.93,North,0,0.0,0.0,85,0.00,,,0.00,WUHU216HW,2013-04-13 12:42:00,
2013-04-13 08:47:00,73.1,68.3,29.93,North,0,0.0,0.0,85,0.00,,,0.00,WUHU216HW,2013-04-13 12:47:00,
2013-04-13 08:52:00,73.3,68.5,29.93,North,0,0.0,0.0,85,0.00,,,0.00,WUHU216HW,2013-04-13 12:52:00,
2013-04-13 08:57:00,73.4,68.7,29.93,North,0,0.0,0.0,85,0.00,,,0.00,WUHU216HW,2013-04-13 12:57:00,
2013-04-13 09:03:00,73.6,68.5,29.93,North,0,0.0,0.0,84,0.00,,,0.00,WUHU216HW,2013-04-13 13:03:00,
2013-04-13 09:08:00,73.8,68.7,29.94,North,0,0.0,0.0,84,0.00,,,0.00,WUHU216HW,2013-04-13 13:08:00,
2013-04-13 09:13:00,73.8,68.7,29.93,North,0,0.0,0.0,84,0.00,,,0.00,WUHU216HW,2013-04-13 13:13:00,
2013-04-13 09:18:00,74.0,68.9,29.93,North,0,0.0,0.0,84,0.00,,,0.00,WUHU216HW,2013-04-13 13:18:00,
2013-04-13 09:23:00,74.2,68.7,29.94,North,0,0.0,0.0,83,0.00,,,0.00,WUHU216HW,2013-04-13 13:23:00,
2013-04-13 09:28:00,74.3,68.9,29.94,North,0,0.0,0.0,83,0.00,,,0.00,WUHU216HW,2013-04-13 13:28:00,
2013-04-13 09:33:00,74.5,69.0,29.94,North,0,0.0,0.0,83,0.00,,,0.00,WUHU216HW,2013-04-13 13:33:00,
2013-04-13 09:39:00,74.5,68.8,29.94,North,0,0.0,0.0,82,0.00,,,0.00,WUHU216HW,2013-04-13 13:39:00,
2013-04-13 09:44:00,74.7,69.0,29.94,North,0,0.0,0.0,82,0.00,,,0.00,WUHU216HW,2013-04-13 13:44:00,
2013-04-13 09:49:00,74.9,68.8,29.95,North,0,0.0,0.0,81,0.00,,,0.00,WUHU216HW,2013-04-13 13:49:00,
2013-04-13 09:54:00,75.2,69.1,29.95,North,0,0.0,0.0,81,0.00,,,0.00,WUHU216HW,2013-04-13 13:54:00,
2013-04-13 09:59:00,75.1,68.2,29.95,North,0,0.0,0.0,79,0.00,,,0.00,WUHU216HW,2013-04-13 13:59:00,
2013-04-13 10:04:00,75.4,69.0,29.95,North,0,0.0,0.0,80,0.00,,,0.00,WUHU216HW,2013-04-13 14:04:00,
2013-04-13 10:09:00,75.6,69.1,29.95,North,0,0.0,0.0,80,0.00,,,0.00,WUHU216HW,2013-04-13 14:09:00,
2013-04-13 10:14:00,76.0,69.0,29.95,North,0,0.0,0.0,79,0.00,,,0.00,WUHU216HW,2013-04-13 14:14:00,
2013-04-13 10:19:00,76.1,69.2,29.95,North,0,0.0,0.0,79,0.00,,,0.00,WUHU216HW,2013-04-13 14:19:00,
2013-04-13 10:24:00,76.3,68.9,29.95,North,0,0.0,0.0,78,0.00,,,0.00,WUHU216HW,2013-04-13 14:24:00,
2013-04-13 10:29:00,76.3,68.9,29.95,North,0,0.0,0.0,78,0.00,,,0.00,WUHU216HW,2013-04-13 14:29:00,
2013-04-13 10:34:00,76.5,69.1,29.95,North,0,0.0,0.0,78,0.00,,,0.00,WUHU216HW,2013-04-13 14:34:00,
2013-04-13 12:00:00,81.2,70.0,29.95,North,0,0.0,0.0,69,0.00,,,0.00,WUHU216HW,2013-04-13 16:00:00,
2013-04-13 12:05:00,81.7,70.1,29.95,North,0,0.0,0.0,68,0.00,,,0.00,WUHU216HW,2013-04-13 16:05:00,
2013-04-13 12:10:00,82.3,69.7,29.94,North,0,0.0,0.0,66,0.00,,,0.00,WUHU216HW,2013-04-13 16:10:00,
2013-04-13 12:15:00,82.6,70.0,29.94,North,0,0.0,0.0,66,0.00,,,0.00,WUHU216HW,2013-04-13 16:15:00,
2013-04-13 12:20:00,83.0,70.4,29.94,North,0,0.0,0.0,66,0.00,,,0.00,WUHU216HW,2013-04-13 16:20:00,
2013-04-13 12:25:00,83.2,70.6,29.94,North,0,0.0,0.0,66,0.00,,,0.00,WUHU216HW,2013-04-13 16:25:00,
2013-04-13 12:30:00,83.5,70.9,29.94,North,0,0.0,0.0,66,0.00,,,0.00,WUHU216HW,2013-04-13 16:30:00,
2013-04-13 12:35:00,83.5,70.5,29.94,North,0,0.0,0.0,65,0.00,,,0.00,WUHU216HW,2013-04-13 16:35:00,
2013-04-13 12:40:00,83.9,70.8,29.93,North,0,0.0,0.0,65,0.00,,,0.00,WUHU216HW,2013-04-13 16:40:00,
2013-04-13 12:45:00,84.1,71.0,29.93,North,0,0.0,0.0,65,0.00,,,0.00,WUHU216HW,2013-04-13 16:45:00,
2013-04-13 12:50:00,84.2,71.2,29.93,North,0,0.0,0.0,65,0.00,,,0.00,WUHU216HW,2013-04-13 16:50:00,
2013-04-13 12:55:00,84.2,70.7,29.93,North,0,0.0,0.0,64,0.00,,,0.00,WUHU216HW,2013-04-13 16:55:00,
2013-04-13 13:00:00,84.2,70.7,29.93,North,0,0.0,0.0,64,0.00,,,0.00,WUHU216HW,2013-04-13 17:00:00,
2013-04-13 13:05:00,84.4,70.9,29.93,North,0,0.0,0.0,64,0.00,,,0.00,WUHU216HW,2013-04-13 17:05:00,
2013-04-13 13:10:00,84.6,70.2,29.93,North,0,0.0,0.0,62,0.00,,,0.00,WUHU216HW,2013-04-13 17:10:00,
2013-04-13 13:15:00,84.8,70.8,29.93,North,0,0.0,0.0,63,0.00,,,0.00,WUHU216HW,2013-04-13 17:15:00,
2013-04-13 13:21:00,84.8,70.8,29.93,North,0,0.0,0.0,63,0.00,,,0.00,WUHU216HW,2013-04-13 17:21:00,
2013-04-13 13:26:00,84.8,70.8,29.93,North,0,0.0,0.0,63,0.00,,,0.00,WUHU216HW,2013-04-13 17:26:00,
2013-04-13 13:32:00,84.8,70.4,29.92,North,0,0.0,0.0,62,0.00,,,0.00,WUHU216HW,2013-04-13 17:32:00,
2013-04-13 13:37:00,85.0,70.5,29.92,North,0,0.0,0.0,62,0.00,,,0.00,WUHU216HW,2013-04-13 17:37:00,
2013-04-13 13:42:00,84.8,70.4,29.92,North,0,0.0,0.0,62,0.00,,,0.00,WUHU216HW,2013-04-13 17:42:00,
2013-04-13 13:47:00,84.8,70.4,29.92,North,0,0.0,0.0,62,0.00,,,0.00,WUHU216HW,2013-04-13 17:47:00,
2013-04-13 13:52:00,84.8,70.4,29.92,North,0,0.0,0.0,62,0.00,,,0.00,WUHU216HW,2013-04-13 17:52:00,
2013-04-13 13:57:00,85.0,70.5,29.92,North,0,0.0,0.0,62,0.00,,,0.00,WUHU216HW,2013-04-13 17:57:00,
2013-04-13 14:03:00,85.0,70.0,29.92,North,0,0.0,0.0,61,0.00,,,0.00,WUHU216HW,2013-04-13 18:03:00,
2013-04-13 14:08:00,85.3,70.4,29.92,North,0,0.0,0.0,61,0.00,,,0.00,WUHU216HW,2013-04-13 18:08:00,
2013-04-13 14:13:00,85.3,69.9,29.92,North,0,0.0,0.0,60,0.00,,,0.00,WUHU216HW,2013-04-13 18:13:00,
2013-04-13 14:18:00,85.5,70.1,29.92,North,0,0.0,0.0,60,0.00,,,0.00,WUHU216HW,2013-04-13 18:18:00,
2013-04-13 14:23:00,85.5,70.1,29.91,North,0,0.0,0.0,60,0.00,,,0.00,WUHU216HW,2013-04-13 18:23:00,
2013-04-13 14:27:00,85.5,69.6,29.91,North,0,0.0,0.0,59,0.00,,,0.00,WUHU216HW,2013-04-13 18:27:00,
2013-04-13 14:32:00,85.7,69.8,29.90,North,0,0.0,0.0,59,0.00,,,0.00,WUHU216HW,2013-04-13 18:32:00,
2013-04-13 14:37:00,85.7,69.8,29.91,North,0,0.0,0.0,59,0.00,,,0.00,WUHU216HW,2013-04-13 18:37:00,
2013-04-13 14:42:00,85.7,68.7,29.90,North,0,0.0,0.0,57,0.00,,,0.00,WUHU216HW,2013-04-13 18:42:00,
2013-04-13 14:47:00,85.5,68.5,29.90,North,0,0.0,0.0,57,0.00,,,0.00,WUHU216HW,2013-04-13 18:47:00,
2013-04-13 14:53:00,85.5,68.0,29.90,North,0,0.0,0.0,56,0.00,,,0.00,WUHU216HW,2013-04-13 18:53:00,
2013-04-13 14:58:00,85.5,68.0,29.89,North,0,0.0,0.0,56,0.00,,,0.00,WUHU216HW,2013-04-13 18:58:00,
2013-04-13 15:03:00,85.7,68.1,29.89,North,0,0.0,0.0,56,0.00,,,0.00,WUHU216HW,2013-04-13 19:03:00,
2013-04-13 15:08:00,85.5,67.5,29.89,North,0,0.0,0.0,55,0.00,,,0.00,WUHU216HW,2013-04-13 19:08:00,
2013-04-13 15:13:00,85.5,67.5,29.89,North,0,0.0,0.0,55,0.00,,,0.00,WUHU216HW,2013-04-13 19:13:00,
2013-04-13 15:18:00,85.7,67.6,29.88,North,0,0.0,0.0,55,0.00,,,0.00,WUHU216HW,2013-04-13 19:18:00,
2013-04-13 15:23:00,85.7,68.1,29.88,North,0,0.0,0.0,56,0.00,,,0.00,WUHU216HW,2013-04-13 19:23:00,
2013-04-13 15:28:00,85.7,67.6,29.88,North,0,0.0,0.0,55,0.00,,,0.00,WUHU216HW,2013-04-13 19:28:00,
2013-04-13 15:33:00,85.7,67.2,29.88,North,0,0.0,0.0,54,0.00,,,0.00,WUHU216HW,2013-04-13 19:33:00,
2013-04-13 15:38:00,85.3,66.8,29.88,North,0,0.0,0.0,54,0.00,,,0.00,WUHU216HW,2013-04-13 19:38:00,
2013-04-13 15:43:00,85.3,66.8,29.88,North,0,0.0,0.0,54,0.00,,,0.00,WUHU216HW,2013-04-13 19:43:00,
2013-04-13 15:48:00,85.3,67.3,29.88,North,0,0.0,0.0,55,0.00,,,0.00,WUHU216HW,2013-04-13 19:48:00,
2013-04-13 15:53:00,85.3,67.3,29.88,North,0,0.0,0.0,55,0.00,,,0.00,WUHU216HW,2013-04-13 19:53:00,
2013-04-13 15:58:00,85.3,66.8,29.87,North,0,0.0,0.0,54,0.00,,,0.00,WUHU216HW,2013-04-13 19:58:00,
2013-04-13 16:03:00,85.1,66.6,29.87,North,0,0.0,0.0,54,0.00,,,0.00,WUHU216HW,2013-04-13 20:03:00,
2013-04-13 16:08:00,85.3,66.8,29.87,North,0,0.0,0.0,54,0.00,,,0.00,WUHU216HW,2013-04-13 20:08:00,
2013-04-13 16:13:00,85.3,66.2,29.87,North,0,0.0,0.0,53,0.00,,,0.00,WUHU216HW,2013-04-13 20:13:00,
2013-04-13 16:18:00,85.3,66.2,29.87,North,0,0.0,0.0,53,0.00,,,0.00,WUHU216HW,2013-04-13 20:18:00,
2013-04-13 16:23:00,85.7,66.6,29.87,North,0,0.0,0.0,53,0.00,,,0.00,WUHU216HW,2013-04-13 20:23:00,
2013-04-13 16:28:00,85.7,66.1,29.87,North,0,0.0,0.0,52,0.00,,,0.00,WUHU216HW,2013-04-13 20:28:00,
2013-04-13 16:33:00,85.7,66.6,29.86,North,0,0.0,0.0,53,0.00,,,0.00,WUHU216HW,2013-04-13 20:33:00,
2013-04-13 16:38:00,85.7,66.6,29.86,North,0,0.0,0.0,53,0.00,,,0.00,WUHU216HW,2013-04-13 20:38:00,
2013-04-13 16:43:00,85.7,66.6,29.87,North,0,0.0,0.0,53,0.00,,,0.00,WUHU216HW,2013-04-13 20:43:00,
2013-04-13 16:48:00,85.5,67.0,29.87,North,0,0.0,0.0,54,0.00,,,0.00,WUHU216HW,2013-04-13 20:48:00,
2013-04-13 16:53:00,85.3,66.8,29.87,North,0,0.0,0.0,54,0.00,,,0.00,WUHU216HW,2013-04-13 20:53:00,
2013-04-13 16:58:00,85.3,67.3,29.87,North,0,0.0,0.0,55,0.00,,,0.00,WUHU216HW,2013-04-13 20:58:00,
2013-04-13 17:03:00,85.3,67.3,29.87,North,0,0.0,0.0,55,0.00,,,0.00,WUHU216HW,2013-04-13 21:03:00,
2013-04-13 17:08:00,85.3,67.3,29.87,North,0,0.0,0.0,55,0.00,,,0.00,WUHU216HW,2013-04-13 21:08:00,
2013-04-13 17:13:00,85.3,67.3,29.87,North,0,0.0,0.0,55,0.00,,,0.00,WUHU216HW,2013-04-13 21:13:00,
2013-04-13 17:18:00,85.3,67.3,29.87,North,0,0.0,0.0,55,0.00,,,0.00,WUHU216HW,2013-04-13 21:18:00,
2013-04-13 17:23:00,85.3,67.3,29.87,North,0,0.0,0.0,55,0.00,,,0.00,WUHU216HW,2013-04-13 21:23:00,
2013-04-13 17:28:00,85.1,66.6,29.87,North,0,0.0,0.0,54,0.00,,,0.00,WUHU216HW,2013-04-13 21:28:00,
2013-04-13 17:33:00,85.3,67.3,29.87,North,0,0.0,0.0,55,0.00,,,0.00,WUHU216HW,2013-04-13 21:33:00,
2013-04-13 17:38:00,85.1,67.1,29.87,North,0,0.0,0.0,55,0.00,,,0.00,WUHU216HW,2013-04-13 21:38:00,
2013-04-13 17:43:00,85.3,67.3,29.87,North,0,0.0,0.0,55,0.00,,,0.00,WUHU216HW,2013-04-13 21:43:00,
2013-04-13 17:48:00,85.1,67.1,29.87,North,0,0.0,0.0,55,0.00,,,0.00,WUHU216HW,2013-04-13 21:48:00,
2013-04-13 17:53:00,85.1,67.1,29.87,North,0,0.0,0.0,55,0.00,,,0.00,WUHU216HW,2013-04-13 21:53:00,
2013-04-13 17:58:00,85.0,67.0,29.87,North,0,0.0,0.0,55,0.00,,,0.00,WUHU216HW,2013-04-13 21:58:00,
2013-04-13 18:03:00,85.0,67.0,29.87,North,0,0.0,0.0,55,0.00,,,0.00,WUHU216HW,2013-04-13 22:03:00,
2013-04-13 18:08:00,85.0,66.4,29.87,North,0,0.0,0.0,54,0.00,,,0.00,WUHU216HW,2013-04-13 22:08:00,
2013-04-13 18:13:00,85.0,66.4,29.87,North,0,0.0,0.0,54,0.00,,,0.00,WUHU216HW,2013-04-13 22:13:00,
2013-04-13 18:18:00,85.0,67.0,29.87,North,0,0.0,0.0,55,0.00,,,0.00,WUHU216HW,2013-04-13 22:18:00,
2013-04-13 18:23:00,84.8,66.8,29.87,North,0,0.0,0.0,55,0.00,,,0.00,WUHU216HW,2013-04-13 22:23:00,
2013-04-13 18:28:00,84.8,66.8,29.87,North,0,0.0,0.0,55,0.00,,,0.00,WUHU216HW,2013-04-13 22:28:00,
2013-04-13 18:33:00,84.8,66.8,29.87,North,0,0.0,0.0,55,0.00,,,0.00,WUHU216HW,2013-04-13 22:33:00,
2013-04-13 18:38:00,84.6,66.7,29.87,North,0,0.0,0.0,55,0.00,,,0.00,WUHU216HW,2013-04-13 22:38:00,
2013-04-13 18:43:00,84.6,66.7,29.87,North,0,0.0,0.0,55,0.00,,,0.00,WUHU216HW,2013-04-13 22:43:00,
2013-04-13 18:48:00,84.6,66.7,29.87,North,0,0.0,0.0,55,0.00,,,0.00,WUHU216HW,2013-04-13 22:48:00,
2013-04-13 18:53:00,84.4,66.5,29.88,North,0,0.0,0.0,55,0.00,,,0.00,WUHU216HW,2013-04-13 22:53:00,
2013-04-13 18:58:00,83.5,64.5,29.88,North,0,0.0,0.0,53,0.00,,,0.00,WUHU216HW,2013-04-13 22:58:00,
2013-04-13 19:03:00,82.8,64.4,29.88,North,0,0.0,0.0,54,0.00,,,0.00,WUHU216HW,2013-04-13 23:03:00,
2013-04-13 19:08:00,82.4,64.0,29.89,North,0,0.0,0.0,54,0.00,,,0.00,WUHU216HW,2013-04-13 23:08:00,
2013-04-13 19:13:00,82.1,63.7,29.88,North,0,0.0,0.0,54,0.00,,,0.00,WUHU216HW,2013-04-13 23:13:00,
2013-04-13 19:18:00,81.9,64.1,29.88,North,0,0.0,0.0,55,0.00,,,0.00,WUHU216HW,2013-04-13 23:18:00,
2013-04-13 19:23:00,81.7,63.9,29.88,North,0,0.0,0.0,55,0.00,,,0.00,WUHU216HW,2013-04-13 23:23:00,
2013-04-13 19:28:00,81.4,63.5,29.88,North,0,0.0,0.0,55,0.00,,,0.00,WUHU216HW,2013-04-13 23:28:00,
2013-04-13 19:33:00,81.0,63.7,29.88,North,0,0.0,0.0,56,0.00,,,0.00,WUHU216HW,2013-04-13 23:33:00,
2013-04-13 19:38:00,80.8,63.6,29.88,North,0,0.0,0.0,56,0.00,,,0.00,WUHU216HW,2013-04-13 23:38:00,
2013-04-13 19:43:00,80.5,63.3,29.89,North,0,0.0,0.0,56,0.00,,,0.00,WUHU216HW,2013-04-13 23:43:00,
2013-04-13 19:48:00,80.3,63.1,29.89,North,0,0.0,0.0,56,0.00,,,0.00,WUHU216HW,2013-04-13 23:48:00,
2013-04-13 19:53:00,80.1,62.9,29.89,North,0,0.0,0.0,56,0.00,,,0.00,WUHU216HW,2013-04-13 23:53:00,
2013-04-13 19:58:00,79.7,62.7,29.89,North,0,0.0,0.0,56,0.00,,,0.00,WUHU216HW,2013-04-13 23:58:00,
2013-04-13 20:03:00,79.6,62.5,29.89,North,0,0.0,0.0,56,0.00,,,0.00,WUHU216HW,2013-04-14 00:03:00,
2013-04-13 20:08:00,79.2,62.6,29.90,North,0,0.0,0.0,57,0.00,,,0.00,WUHU216HW,2013-04-14 00:08:00,
2013-04-13 20:13:00,79.2,62.6,29.90,North,0,0.0,0.0,57,0.00,,,0.00,WUHU216HW,2013-04-14 00:13:00,
2013-04-13 20:18:00,79.0,62.5,29.89,North,0,0.0,0.0,57,0.00,,,0.00,WUHU216HW,2013-04-14 00:18:00,
2013-04-13 20:23:00,78.7,62.2,29.90,North,0,0.0,0.0,57,0.00,,,0.00,WUHU216HW,2013-04-14 00:23:00,
2013-04-13 20:28:00,78.3,61.8,29.90,North,0,0.0,0.0,57,0.00,,,0.00,WUHU216HW,2013-04-14 00:28:00,
2013-04-13 20:33:00,78.1,62.2,29.90,North,0,0.0,0.0,58,0.00,,,0.00,WUHU216HW,2013-04-14 00:33:00,
2013-04-13 20:38:00,77.8,61.8,29.90,North,0,0.0,0.0,58,0.00,,,0.00,WUHU216HW,2013-04-14 00:38:00,
2013-04-13 20:43:00,77.4,61.5,29.91,North,0,0.0,0.0,58,0.00,,,0.00,WUHU216HW,2013-04-14 00:43:00,
2013-04-13 20:48:00,77.0,61.6,29.91,North,0,0.0,0.0,59,0.00,,,0.00,WUHU216HW,2013-04-14 00:48:00,
2013-04-13 20:53:00,76.7,61.3,29.92,North,0,0.0,0.0,59,0.00,,,0.00,WUHU216HW,2013-04-14 00:53:00,
2013-04-13 20:58:00,76.3,60.9,29.92,North,0,0.0,0.0,59,0.00,,,0.00,WUHU216HW,2013-04-14 00:58:00,
2013-04-13 21:03:00,75.8,60.5,29.92,North,0,0.0,0.0,59,0.00,,,0.00,WUHU216HW,2013-04-14 01:03:00,
2013-04-13 21:08:00,75.4,60.1,29.92,North,0,0.0,0.0,59,0.00,,,0.00,WUHU216HW,2013-04-14 01:08:00,
2013-04-13 21:13:00,75.2,60.5,29.92,North,0,0.0,0.0,60,0.00,,,0.00,WUHU216HW,2013-04-14 01:13:00,
2013-04-13 21:18:00,75.1,59.8,29.92,North,0,0.0,0.0,59,0.00,,,0.00,WUHU216HW,2013-04-14 01:18:00,
2013-04-13 21:23:00,74.9,59.6,29.93,North,0,0.0,0.0,59,0.00,,,0.00,WUHU216HW,2013-04-14 01:23:00,
2013-04-13 21:28:00,74.7,59.0,29.93,North,0,0.0,0.0,58,0.00,,,0.00,WUHU216HW,2013-04-14 01:28:00,
2013-04-13 21:33:00,74.3,57.6,29.93,North,0,0.0,0.0,56,0.00,,,0.00,WUHU216HW,2013-04-14 01:33:00,
2013-04-13 21:38:00,74.0,57.3,29.93,North,0,0.0,0.0,56,0.00,,,0.00,WUHU216HW,2013-04-14 01:38:00,
2013-04-13 21:43:00,73.8,57.1,29.93,North,0,0.0,0.0,56,0.00,,,0.00,WUHU216HW,2013-04-14 01:43:00,
2013-04-13 21:48:00,73.6,57.3,29.93,North,0,0.0,0.0,57,0.00,,,0.00,WUHU216HW,2013-04-14 01:48:00,
2013-04-13 21:53:00,73.6,57.3,29.94,North,0,0.0,0.0,57,0.00,,,0.00,WUHU216HW,2013-04-14 01:53:00,
2013-04-13 21:58:00,73.6,57.9,29.95,North,0,0.0,0.0,58,0.00,,,0.00,WUHU216HW,2013-04-14 01:58:00,
2013-04-13 22:03:00,73.8,58.1,29.95,North,0,0.0,0.0,58,0.00,,,0.00,WUHU216HW,2013-04-14 02:03:00,
2013-04-13 22:08:00,73.8,58.1,29.95,North,0,0.0,0.0,58,0.00,,,0.00,WUHU216HW,2013-04-14 02:08:00,
2013-04-13 22:13:00,73.6,57.9,29.96,North,0,0.0,0.0,58,0.00,,,0.00,WUHU216HW,2013-04-14 02:13:00,
2013-04-13 22:18:00,73.4,58.1,29.96,North,0,0.0,0.0,59,0.00,,,0.00,WUHU216HW,2013-04-14 02:18:00,
2013-04-13 22:23:00,73.4,58.1,29.95,North,0,0.0,0.0,59,0.00,,,0.00,WUHU216HW,2013-04-14 02:23:00,
2013-04-13 22:28:00,73.3,58.5,29.96,North,0,0.0,0.0,60,0.00,,,0.00,WUHU216HW,2013-04-14 02:28:00,
2013-04-13 22:33:00,73.1,58.3,29.96,North,0,0.0,0.0,60,0.00,,,0.00,WUHU216HW,2013-04-14 02:33:00,
2013-04-13 22:38:00,73.3,58.5,29.97,North,0,0.0,0.0,60,0.00,,,0.00,WUHU216HW,2013-04-14 02:38:00,
2013-04-13 22:43:00,73.4,59.1,29.97,North,0,0.0,0.0,61,0.00,,,0.00,WUHU216HW,2013-04-14 02:43:00,
2013-04-13 22:48:00,73.4,59.1,29.97,North,0,0.0,0.0,61,0.00,,,0.00,WUHU216HW,2013-04-14 02:48:00,
2013-04-13 22:53:00,73.6,59.3,29.97,North,0,0.0,0.0,61,0.00,,,0.00,WUHU216HW,2013-04-14 02:53:00,
2013-04-13 22:58:00,73.6,59.8,29.97,North,0,0.0,0.0,62,0.00,,,0.00,WUHU216HW,2013-04-14 02:58:00,
2013-04-13 23:03:00,73.4,59.6,29.97,North,0,0.0,0.0,62,0.00,,,0.00,WUHU216HW,2013-04-14 03:03:00,
2013-04-13 23:08:00,73.3,59.4,29.97,North,0,0.0,0.0,62,0.00,,,0.00,WUHU216HW,2013-04-14 03:08:00,
2013-04-13 23:13:00,73.1,59.7,29.97,North,0,0.0,0.0,63,0.00,,,0.00,WUHU216HW,2013-04-14 03:13:00,
2013-04-13 23:18:00,73.1,59.7,29.97,North,0,0.0,0.0,63,0.00,,,0.00,WUHU216HW,2013-04-14 03:18:00,
2013-04-13 23:23:00,73.3,60.3,29.97,North,0,0.0,0.0,64,0.00,,,0.00,WUHU216HW,2013-04-14 03:23:00,
2013-04-13 23:28:00,73.4,60.5,29.97,North,0,0.0,0.0,64,0.00,,,0.00,WUHU216HW,2013-04-14 03:28:00,
2013-04-13 23:33:00,73.3,60.3,29.97,North,0,0.0,0.0,64,0.00,,,0.00,WUHU216HW,2013-04-14 03:33:00,
2013-04-13 23:38:00,73.3,60.3,29.97,North,0,0.0,0.0,64,0.00,,,0.00,WUHU216HW,2013-04-14 03:38:00,
2013-04-13 23:43:00,73.4,60.5,29.98,North,0,0.0,0.0,64,0.00,,,0.00,WUHU216HW,2013-04-14 03:43:00,
2013-04-13 23:48:00,73.4,60.5,29.98,North,0,0.0,0.0,64,0.00,,,0.00,WUHU216HW,2013-04-14 03:48:00,
2013-04-13 23:53:00,73.4,60.5,29.98,North,0,0.0,0.0,64,0.00,,,0.00,WUHU216HW,2013-04-14 03:53:00,
2013-04-13 23:58:00,73.4,60.9,29.97,North,0,0.0,0.0,65,0.00,,,0.00,WUHU216HW,2013-04-14 03:58:00,